Time;durP1;ratioP1;P1;durP2;ratioP2;P2;SDS_P1;SDS_P2;PMS_P1;PMS_P2;Temp;Humidity;BMP_temperature;BMP_pressure;BME280_temperature;BME280_humidity;BME280_pressure;Samples;Min_cycle;Max_cycle;Signal;HPM_P1;HPM_P2
2022/06/10 00:00:34;;;;;;;5.88;1.40;;;12.50;99.90;;;;;;4977407;28;20057;-76
2022/06/10 00:03:00;;;;;;;3.85;1.40;;;12.50;99.90;;;;;;4993061;28;20395;-76
2022/06/10 00:05:29;;;;;;;2.47;1.10;;;12.50;99.90;;;;;;4976758;28;20038;-76
2022/06/10 00:07:55;;;;;;;3.40;1.30;;;12.50;99.90;;;;;;4993736;28;20129;-75
2022/06/10 00:10:23;;;;;;;4.60;1.10;;;12.40;99.90;;;;;;4993597;28;20129;-76
2022/06/10 00:12:50;;;;;;;2.28;1.00;;;12.40;99.90;;;;;;4994076;28;20080;-76
2022/06/10 00:15:17;;;;;;;2.75;1.17;;;12.40;99.90;;;;;;4980631;28;20046;-75
2022/06/10 00:17:44;;;;;;;3.88;1.17;;;12.40;99.90;;;;;;4996708;28;20046;-75
2022/06/10 00:20:14;;;;;;;4.57;1.17;;;12.40;99.90;;;;;;4997547;28;20046;-76
2022/06/10 00:22:40;;;;;;;2.75;1.30;;;12.40;99.90;;;;;;4997205;28;20075;-75
2022/06/10 00:25:06;;;;;;;7.07;1.23;;;12.40;99.90;;;;;;4995876;28;20398;-75
2022/06/10 00:27:32;;;;;;;2.88;1.00;;;12.40;99.90;;;;;;4996126;28;20494;-75
2022/06/10 00:29:58;;;;;;;5.90;1.35;;;12.30;99.90;;;;;;4996063;28;20043;-75
2022/06/10 00:32:23;;;;;;;4.45;1.60;;;12.30;99.90;;;;;;4996144;28;20056;-75
2022/06/10 00:34:49;;;;;;;4.20;1.20;;;12.30;99.90;;;;;;4996668;28;20042;-75
2022/06/10 00:37:15;;;;;;;4.85;1.70;;;12.30;99.90;;;;;;4996873;28;20085;-75
2022/06/10 00:39:41;;;;;;;5.22;1.20;;;12.20;99.90;;;;;;4996159;28;20053;-75
2022/06/10 00:42:07;;;;;;;2.53;1.10;;;12.20;99.90;;;;;;4995673;28;20490;-76
2022/06/10 00:44:41;;;;;;;4.50;1.25;;;12.20;99.90;;;;;;4995781;28;20058;-75
2022/06/10 00:47:39;;;;;;;6.00;1.55;;;12.10;99.90;;;;;;4996552;28;20081;-76
2022/06/10 00:50:28;;;;;;;6.88;1.92;;;12.10;99.90;;;;;;4996946;28;20518;-75
2022/06/10 00:52:59;;;;;;;6.28;1.92;;;12.10;99.90;;;;;;4995495;28;20058;-75
2022/06/10 00:55:29;;;;;;;5.43;1.50;;;12.10;99.90;;;;;;4997044;28;20116;-75
2022/06/10 00:58:02;;;;;;;4.65;1.20;;;12.10;99.90;;;;;;4997196;28;20395;-75
2022/06/10 01:00:29;;;;;;;5.07;1.55;;;12.00;99.90;;;;;;4995664;28;20046;-76
2022/06/10 01:02:55;;;;;;;7.72;1.60;;;12.00;99.90;;;;;;4995476;28;20054;-75
2022/06/10 01:05:26;;;;;;;3.92;1.38;;;11.90;99.90;;;;;;4996332;28;20484;-75
2022/06/10 01:08:02;;;;;;;4.28;1.20;;;11.90;99.90;;;;;;4997214;28;20422;-76
2022/06/10 01:10:35;;;;;;;3.88;1.15;;;11.90;99.90;;;;;;4996199;28;20081;-75
2022/06/10 01:13:23;;;;;;;3.33;1.15;;;11.90;99.90;;;;;;4995063;28;20081;-75
2022/06/10 01:16:11;;;;;;;4.50;1.52;;;11.90;99.90;;;;;;4996062;28;20054;-76
2022/06/10 01:18:46;;;;;;;4.25;1.30;;;11.80;99.90;;;;;;4995509;28;20042;-75
2022/06/10 01:21:14;;;;;;;4.57;1.33;;;11.80;99.90;;;;;;4995711;28;20046;-75
2022/06/10 01:24:12;;;;;;;6.10;1.40;;;11.80;99.90;;;;;;4994222;28;20054;-75
2022/06/10 01:29:43;;;;;;;4.78;1.60;;;11.80;99.90;;;;;;4996020;28;20061;-76
2022/06/10 01:32:26;;;;;;;5.03;1.60;;;11.80;99.90;;;;;;4994681;28;20046;-76
2022/06/10 01:35:20;;;;;;;5.95;1.60;;;11.80;99.90;;;;;;4996332;28;20046;-76
2022/06/10 01:38:06;;;;;;;3.85;1.48;;;11.70;99.90;;;;;;4990784;28;20453;-75
2022/06/10 01:40:47;;;;;;;5.97;1.73;;;11.70;99.90;;;;;;4995058;28;20093;-76
2022/06/10 01:43:28;;;;;;;4.90;1.73;;;11.70;99.90;;;;;;4996262;28;20050;-75
2022/06/10 01:46:15;;;;;;;7.00;1.95;;;11.70;99.90;;;;;;4995668;28;20113;-75
2022/06/10 01:49:16;;;;;;;5.82;2.00;;;11.80;99.90;;;;;;4995654;28;20046;-75
2022/06/10 01:52:07;;;;;;;4.22;1.67;;;11.70;99.90;;;;;;4994812;28;20491;-75
2022/06/10 01:54:41;;;;;;;4.72;1.65;;;11.70;99.90;;;;;;4995427;28;20042;-76
2022/06/10 01:57:13;;;;;;;4.10;1.60;;;11.70;99.90;;;;;;4996027;28;20046;-76
2022/06/10 01:59:52;;;;;;;4.85;1.67;;;11.70;99.90;;;;;;4995484;28;20070;-76
2022/06/10 02:02:23;;;;;;;5.95;1.88;;;11.70;99.90;;;;;;4996180;28;20056;-76
2022/06/10 02:05:00;;;;;;;7.45;1.63;;;11.70;99.90;;;;;;4995732;28;20121;-75
2022/06/10 02:07:34;;;;;;;4.65;1.65;;;11.70;99.90;;;;;;4995265;28;20096;-76
2022/06/10 02:10:09;;;;;;;3.83;1.40;;;11.70;99.90;;;;;;4994558;28;20475;-75
2022/06/10 02:12:42;;;;;;;3.20;1.35;;;11.70;99.90;;;;;;4978287;28;20054;-75
2022/06/10 02:15:34;;;;;;;4.13;1.80;;;11.60;99.90;;;;;;4978422;28;20050;-76
2022/06/10 02:18:12;;;;;;;4.00;1.30;;;11.60;99.90;;;;;;4994155;28;20046;-75
2022/06/10 02:20:43;;;;;;;4.80;1.45;;;11.60;99.90;;;;;;4995032;28;20109;-75
2022/06/10 02:23:14;;;;;;;7.07;1.60;;;11.60;99.90;;;;;;4994959;28;20046;-75
2022/06/10 02:25:44;;;;;;;6.50;1.83;;;11.50;99.90;;;;;;4994974;28;20050;-75
2022/06/10 02:28:15;;;;;;;6.95;2.20;;;11.60;99.90;;;;;;4994903;28;20082;-75
2022/06/10 02:30:48;;;;;;;5.97;1.88;;;11.60;99.90;;;;;;4994701;28;20099;-75
2022/06/10 02:33:14;;;;;;;5.32;1.95;;;11.50;99.90;;;;;;4995293;28;20050;-75
2022/06/10 02:35:50;;;;;;;4.32;2.10;;;11.50;99.90;;;;;;4994365;28;20046;-75
2022/06/10 02:38:52;;;;;;;6.20;2.35;;;11.50;99.90;;;;;;4994773;28;20128;-75
2022/06/10 02:41:47;;;;;;;7.60;2.03;;;11.50;99.90;;;;;;4960588;28;20070;-75
2022/06/10 02:44:31;;;;;;;5.15;2.42;;;11.60;99.90;;;;;;4994845;28;20125;-75
2022/06/10 02:47:22;;;;;;;10.32;2.50;;;11.60;99.90;;;;;;4977702;28;20050;-75
2022/06/10 02:49:48;;;;;;;6.55;2.38;;;11.60;99.90;;;;;;4994555;28;20065;-75
2022/06/10 02:52:17;;;;;;;8.57;2.30;;;11.50;99.90;;;;;;4993089;28;20058;-75
2022/06/10 02:54:43;;;;;;;4.32;1.92;;;11.50;99.90;;;;;;4994641;28;20042;-75
2022/06/10 02:57:15;;;;;;;6.78;2.50;;;11.50;99.90;;;;;;4993315;28;20477;-75
2022/06/10 03:02:49;;;;;;;4.32;2.20;;;11.50;99.90;;;;;;4993060;28;20146;-74
2022/06/10 03:05:37;;;;;;;8.63;2.85;;;11.50;99.90;;;;;;4993307;28;20046;-74
2022/06/10 03:08:26;;;;;;;4.30;2.13;;;11.50;99.90;;;;;;4993647;28;20204;-75
2022/06/10 03:11:06;;;;;;;5.55;2.22;;;11.50;99.90;;;;;;4995121;28;20054;-74
2022/06/10 03:13:41;;;;;;;4.82;2.50;;;11.50;99.90;;;;;;4994172;28;20104;-75
2022/06/10 03:16:30;;;;;;;3.78;2.10;;;11.50;99.90;;;;;;4994134;28;20105;-75
2022/06/10 03:19:05;;;;;;;3.95;2.42;;;11.50;99.90;;;;;;4993247;28;20050;-75
2022/06/10 03:21:52;;;;;;;3.63;2.63;;;11.50;99.90;;;;;;4994226;28;20081;-75
2022/06/10 03:24:33;;;;;;;6.47;2.47;;;11.40;99.90;;;;;;4992675;28;20054;-75
2022/06/10 03:27:16;;;;;;;6.22;2.72;;;11.50;99.90;;;;;;4992975;28;20046;-75
2022/06/10 03:29:54;;;;;;;5.78;2.25;;;11.50;99.90;;;;;;4993790;28;20073;-75
2022/06/10 03:33:04;;;;;;;4.75;2.20;;;11.40;99.90;;;;;;4993099;28;20109;-75
2022/06/10 03:35:44;;;;;;;7.18;2.20;;;11.40;99.90;;;;;;4987932;28;20054;-75
2022/06/10 03:38:10;;;;;;;8.43;2.40;;;11.40;99.90;;;;;;4994084;28;20050;-75
2022/06/10 03:40:36;;;;;;;5.15;2.75;;;11.40;99.90;;;;;;4994276;28;20086;-75
2022/06/10 03:43:05;;;;;;;5.00;2.35;;;11.40;99.90;;;;;;4977601;28;20054;-75
2022/06/10 03:45:59;;;;;;;6.47;2.47;;;11.40;99.90;;;;;;4993022;28;20088;-75
2022/06/10 03:48:27;;;;;;;7.40;2.72;;;11.50;99.90;;;;;;4994591;28;20058;-75
2022/06/10 03:50:55;;;;;;;9.10;2.90;;;11.40;99.90;;;;;;4997792;28;20046;-75
2022/06/10 03:53:24;;;;;;;3.38;2.55;;;11.50;99.90;;;;;;4996062;28;20073;-75
2022/06/10 03:55:50;;;;;;;5.22;2.20;;;11.50;99.90;;;;;;4997691;28;20050;-75
2022/06/10 03:58:17;;;;;;;6.90;2.50;;;11.40;99.90;;;;;;4996512;28;20133;-75
2022/06/10 04:00:43;;;;;;;5.90;2.20;;;11.50;99.90;;;;;;4997636;28;20081;-74
2022/06/10 04:03:10;;;;;;;3.97;2.50;;;11.40;99.90;;;;;;4997660;28;20430;-75
2022/06/10 04:05:36;;;;;;;5.65;2.42;;;11.40;99.90;;;;;;4997488;28;20038;-75
2022/06/10 04:08:02;;;;;;;7.05;2.22;;;11.50;99.90;;;;;;4996498;28;20054;-75
2022/06/10 04:10:30;;;;;;;4.45;2.40;;;11.50;99.90;;;;;;4996295;28;20065;-75
2022/06/10 04:12:56;;;;;;;6.57;2.30;;;11.50;99.90;;;;;;4997918;28;20054;-75
2022/06/10 04:15:27;;;;;;;5.00;2.40;;;11.50;99.90;;;;;;4979993;28;20085;-75
2022/06/10 04:17:54;;;;;;;5.38;2.17;;;11.50;99.90;;;;;;4996175;28;20046;-74
2022/06/10 04:20:34;;;;;;;5.50;2.15;;;11.50;99.90;;;;;;4996904;28;20403;-74
2022/06/10 04:23:00;;;;;;;6.20;2.55;;;11.50;99.90;;;;;;4997272;28;20046;-74
2022/06/10 04:25:26;;;;;;;5.45;2.85;;;11.60;99.90;;;;;;4997108;28;20042;-74
2022/06/10 04:27:52;;;;;;;7.47;2.70;;;11.60;99.90;;;;;;4997102;28;20510;-74
2022/06/10 04:30:28;;;;;;;6.50;2.83;;;11.60;99.90;;;;;;4995793;28;20053;-75
2022/06/10 04:32:55;;;;;;;6.38;2.38;;;11.70;99.90;;;;;;4997043;28;20046;-74
2022/06/10 04:35:21;;;;;;;4.65;2.88;;;11.70;99.90;;;;;;4996787;28;20479;-74
2022/06/10 04:37:48;;;;;;;8.15;2.83;;;11.70;99.90;;;;;;4996919;28;20042;-74
2022/06/10 04:40:17;;;;;;;5.80;2.50;;;11.70;99.90;;;;;;4979920;28;20046;-74
2022/06/10 04:42:47;;;;;;;5.82;2.25;;;11.80;99.90;;;;;;4995583;28;20081;-74
2022/06/10 04:45:16;;;;;;;6.47;2.20;;;11.80;99.90;;;;;;4995712;28;20042;-74
2022/06/10 04:47:41;;;;;;;7.25;2.50;;;11.90;99.90;;;;;;4996767;28;20049;-75
2022/06/10 04:50:10;;;;;;;8.07;2.85;;;11.90;99.90;;;;;;4997564;28;20050;-73
2022/06/10 04:52:36;;;;;;;4.32;2.60;;;11.90;99.90;;;;;;4996240;28;20062;-74
2022/06/10 04:55:04;;;;;;;6.20;2.30;;;12.00;99.90;;;;;;4996492;28;20506;-74
2022/06/10 04:57:29;;;;;;;4.25;2.35;;;12.00;99.90;;;;;;4996201;28;20073;-75
2022/06/10 04:59:55;;;;;;;5.80;2.63;;;12.10;99.90;;;;;;4994351;28;20424;-74
2022/06/10 05:02:21;;;;;;;4.45;2.58;;;12.20;99.90;;;;;;4995470;28;20050;-75
2022/06/10 05:04:47;;;;;;;6.53;2.35;;;12.20;99.90;;;;;;4979943;28;20047;-75
2022/06/10 05:07:13;;;;;;;6.40;3.47;;;12.30;99.90;;;;;;4996382;28;20132;-74
2022/06/10 05:09:39;;;;;;;7.30;2.42;;;12.30;99.90;;;;;;4995063;28;20082;-75
2022/06/10 05:12:05;;;;;;;6.68;2.53;;;12.40;99.90;;;;;;4995343;28;20168;-74
2022/06/10 05:14:31;;;;;;;8.30;2.80;;;12.50;99.90;;;;;;4995934;28;20382;-74
2022/06/10 05:16:57;;;;;;;5.00;2.28;;;12.50;99.90;;;;;;4979081;28;20042;-74
2022/06/10 05:19:23;;;;;;;7.47;2.38;;;12.60;99.90;;;;;;4995455;28;20054;-74
2022/06/10 05:21:49;;;;;;;8.40;2.92;;;12.60;99.90;;;;;;4995832;28;20047;-75
2022/06/10 05:24:15;;;;;;;5.40;2.58;;;12.70;99.90;;;;;;4994939;28;20043;-75
2022/06/10 05:26:41;;;;;;;7.90;2.63;;;12.80;99.90;;;;;;4978969;28;20057;-75
2022/06/10 05:29:07;;;;;;;5.55;3.40;;;12.80;99.90;;;;;;4979041;28;20046;-75
2022/06/10 05:31:33;;;;;;;5.00;2.88;;;12.90;99.90;;;;;;4995753;28;20057;-75
2022/06/10 05:36:43;;;;;;;7.72;2.60;;;13.00;99.90;;;;;;4995312;28;20050;-75
2022/06/10 05:39:09;;;;;;;6.78;2.75;;;13.10;99.90;;;;;;4978677;28;20054;-75
2022/06/10 05:44:19;;;;;;;8.25;2.47;;;13.30;99.90;;;;;;4995995;28;20042;-75
2022/06/10 05:46:44;;;;;;;10.40;2.78;;;13.50;99.90;;;;;;4996144;28;20053;-74
2022/06/10 05:49:11;;;;;;;6.68;2.88;;;13.60;99.90;;;;;;4996134;28;20049;-74
2022/06/10 05:51:37;;;;;;;8.35;3.40;;;13.80;99.90;;;;;;4994270;28;20062;-74
2022/06/10 05:54:04;;;;;;;8.20;2.88;;;13.90;99.90;;;;;;4995396;28;20045;-74
2022/06/10 05:56:30;;;;;;;6.68;2.95;;;14.00;99.90;;;;;;4994159;28;20057;-74
2022/06/10 05:58:56;;;;;;;7.40;2.83;;;14.10;99.90;;;;;;4977784;28;20046;-74
2022/06/10 06:01:22;;;;;;;8.68;3.30;;;14.20;99.90;;;;;;4994726;28;20053;-75
2022/06/10 06:03:48;;;;;;;6.93;3.13;;;14.30;99.90;;;;;;4995113;28;20193;-74
2022/06/10 06:06:14;;;;;;;6.78;2.88;;;14.40;99.90;;;;;;4978082;28;20517;-74
2022/06/10 06:08:40;;;;;;;7.40;3.15;;;14.50;99.90;;;;;;4995190;28;20147;-75
2022/06/10 06:11:06;;;;;;;9.10;2.97;;;14.60;99.90;;;;;;4977958;28;20082;-75
2022/06/10 06:13:31;;;;;;;8.57;2.95;;;14.70;99.90;;;;;;4995082;28;20112;-74
2022/06/10 06:15:58;;;;;;;8.23;3.00;;;14.70;99.90;;;;;;4995679;28;20178;-74
2022/06/10 06:18:24;;;;;;;9.63;2.95;;;14.80;99.90;;;;;;4995105;28;20065;-74
2022/06/10 06:20:50;;;;;;;7.65;2.55;;;14.90;99.90;;;;;;4994044;28;20089;-74
2022/06/10 06:23:15;;;;;;;11.43;3.03;;;14.90;99.90;;;;;;4993770;28;20132;-75
2022/06/10 06:25:41;;;;;;;7.18;2.53;;;15.00;99.90;;;;;;4993771;28;20042;-75
2022/06/10 06:28:07;;;;;;;8.13;2.67;;;15.00;99.90;;;;;;4961659;28;20141;-74
2022/06/10 06:30:36;;;;;;;9.10;2.70;;;15.10;99.90;;;;;;4978501;28;20085;-75
2022/06/10 06:33:06;;;;;;;7.20;2.47;;;15.10;99.90;;;;;;4993860;28;20549;-74
2022/06/10 06:35:34;;;;;;;7.43;2.78;;;15.20;99.90;;;;;;4993447;28;20117;-75
2022/06/10 06:38:01;;;;;;;6.80;2.97;;;15.20;99.90;;;;;;4994697;28;20085;-75
2022/06/10 06:40:27;;;;;;;8.02;2.80;;;15.20;99.90;;;;;;4993694;28;20058;-75
2022/06/10 06:42:53;;;;;;;8.57;2.67;;;15.20;99.90;;;;;;4994426;28;20371;-74
2022/06/10 06:45:20;;;;;;;7.13;2.70;;;15.20;99.90;;;;;;4993381;28;20100;-75
2022/06/10 06:47:46;;;;;;;7.43;3.00;;;15.30;99.90;;;;;;4994215;28;20554;-75
2022/06/10 06:50:16;;;;;;;7.85;2.90;;;15.30;99.90;;;;;;4993073;28;20506;-75
2022/06/10 06:52:42;;;;;;;7.72;2.63;;;15.30;99.90;;;;;;4993210;28;20058;-75
2022/06/10 06:55:08;;;;;;;5.95;2.88;;;15.40;99.90;;;;;;4994659;28;20078;-75
2022/06/10 06:57:34;;;;;;;9.48;2.85;;;15.40;99.90;;;;;;4993111;28;20050;-74
2022/06/10 07:00:07;;;;;;;9.05;2.75;;;15.50;99.90;;;;;;4977258;28;20088;-74
2022/06/10 07:02:37;;;;;;;5.72;2.65;;;15.50;99.90;;;;;;4994217;28;20050;-74
2022/06/10 07:05:07;;;;;;;7.05;2.55;;;15.60;99.90;;;;;;4976822;28;20398;-75
2022/06/10 07:07:33;;;;;;;4.72;2.28;;;15.60;99.90;;;;;;4993104;28;20085;-75
2022/06/10 07:09:59;;;;;;;6.65;2.30;;;15.70;99.90;;;;;;4994880;28;20411;-75
2022/06/10 07:12:25;;;;;;;8.18;2.15;;;15.70;99.90;;;;;;4993301;28;20085;-74
2022/06/10 07:14:51;;;;;;;8.85;2.58;;;15.80;99.90;;;;;;4992624;28;20043;-74
2022/06/10 07:17:18;;;;;;;7.88;2.22;;;15.80;99.90;;;;;;4993954;28;20054;-74
2022/06/10 07:19:45;;;;;;;7.55;2.08;;;15.90;99.90;;;;;;4994086;28;20042;-74
2022/06/10 07:22:11;;;;;;;8.93;2.33;;;15.90;99.90;;;;;;4995692;28;20061;-74
2022/06/10 07:24:37;;;;;;;5.88;2.38;;;15.90;99.90;;;;;;4967406;28;20046;-74
2022/06/10 07:27:04;;;;;;;5.68;2.10;;;15.90;99.90;;;;;;5000499;28;20053;-74
2022/06/10 07:29:30;;;;;;;8.75;2.30;;;15.90;99.90;;;;;;4999620;28;20054;-73
2022/06/10 07:31:56;;;;;;;8.85;1.95;;;16.00;99.90;;;;;;4999897;28;20050;-74
2022/06/10 07:34:21;;;;;;;4.78;1.92;;;16.10;99.90;;;;;;4999244;28;20391;-74
2022/06/10 07:36:48;;;;;;;6.47;2.17;;;16.10;99.90;;;;;;5000475;28;20050;-74
2022/06/10 07:39:13;;;;;;;7.95;2.03;;;16.10;99.90;;;;;;4999505;28;20133;-76
2022/06/10 07:42:00;;;;;;;8.82;2.42;;;16.10;99.90;;;;;;4999808;28;20133;-75
2022/06/10 07:44:30;;;;;;;8.35;2.22;;;16.10;99.90;;;;;;4999737;28;20050;-74
2022/06/10 07:46:58;;;;;;;8.07;2.60;;;16.10;99.90;;;;;;4999409;28;20098;-75
2022/06/10 07:49:24;;;;;;;8.43;2.63;;;16.00;99.90;;;;;;4999305;28;20402;-75
2022/06/10 07:51:50;;;;;;;6.45;2.22;;;16.00;99.90;;;;;;4999142;28;20152;-75
2022/06/10 07:54:16;;;;;;;6.93;2.45;;;16.00;99.90;;;;;;5000418;28;20077;-77
2022/06/10 07:56:42;;;;;;;8.07;2.17;;;16.00;99.90;;;;;;5000476;28;20050;-75
2022/06/10 07:59:09;;;;;;;7.78;2.13;;;16.10;99.90;;;;;;4999764;28;20050;-75
2022/06/10 08:01:35;;;;;;;6.97;3.00;;;16.10;99.90;;;;;;4999301;28;20054;-74
2022/06/10 08:04:01;;;;;;;5.57;2.75;;;16.20;99.90;;;;;;4999765;28;20042;-74
2022/06/10 08:06:29;;;;;;;8.88;3.20;;;16.20;99.90;;;;;;4999334;28;20062;-75
2022/06/10 08:08:55;;;;;;;8.57;3.45;;;16.30;99.90;;;;;;5000343;28;20482;-73
2022/06/10 08:11:21;;;;;;;5.90;3.05;;;16.30;99.90;;;;;;4983164;28;20073;-74
2022/06/10 08:13:47;;;;;;;9.30;3.45;;;16.30;99.90;;;;;;4999575;28;20046;-72
2022/06/10 08:16:14;;;;;;;6.15;3.17;;;16.40;99.90;;;;;;5000287;28;20069;-73
2022/06/10 08:18:40;;;;;;;7.97;3.92;;;16.50;99.90;;;;;;4999587;28;20054;-74
2022/06/10 08:23:51;;;;;;;7.85;4.40;;;16.50;99.90;;;;;;5000358;28;20081;-75
2022/06/10 08:26:18;;;;;;;10.35;4.10;;;16.50;99.90;;;;;;4999058;28;20053;-76
2022/06/10 08:28:45;;;;;;;9.90;4.28;;;16.50;99.90;;;;;;4998933;28;20056;-75
2022/06/10 08:31:12;;;;;;;8.23;4.32;;;16.50;99.90;;;;;;4998942;28;20429;-74
2022/06/10 08:33:38;;;;;;;7.07;4.43;;;16.60;99.90;;;;;;4997681;28;20046;-75
2022/06/10 08:36:05;;;;;;;8.90;4.18;;;16.60;99.90;;;;;;4979809;28;20054;-74
2022/06/10 08:38:32;;;;;;;6.40;4.45;;;16.60;99.90;;;;;;4996696;28;20074;-74
2022/06/10 08:41:04;;;;;;;7.18;4.55;;;16.70;99.90;;;;;;4995984;28;20058;-73
2022/06/10 08:44:05;;;;;;;6.85;4.28;;;16.70;99.90;;;;;;4996625;28;20498;-74
2022/06/10 08:46:55;;;;;;;8.75;4.80;;;16.70;99.90;;;;;;4968375;28;20069;-74
2022/06/10 08:50:02;;;;;;;9.95;4.65;;;16.70;99.90;;;;;;4996193;28;20047;-75
2022/06/10 08:52:43;;;;;;;10.32;4.35;;;16.70;99.90;;;;;;4974007;28;20065;-75
2022/06/10 08:55:20;;;;;;;9.68;4.65;;;16.60;99.90;;;;;;4958163;28;20050;-74
2022/06/10 08:57:47;;;;;;;7.28;4.25;;;16.60;99.90;;;;;;4980593;28;20065;-75
2022/06/10 09:00:30;;;;;;;8.75;4.28;;;16.50;99.90;;;;;;4995861;28;20095;-75
2022/06/10 09:03:17;;;;;;;8.57;5.13;;;16.50;99.90;;;;;;4996161;28;20046;-75
2022/06/10 09:05:45;;;;;;;11.65;4.47;;;16.50;99.90;;;;;;4995547;28;20816;-74
2022/06/10 09:08:18;;;;;;;6.82;4.25;;;16.50;99.90;;;;;;4995298;28;20581;-74
2022/06/10 09:11:14;;;;;;;7.32;5.07;;;16.50;99.90;;;;;;4995772;28;20050;-75
2022/06/10 09:13:52;;;;;;;10.35;5.05;;;16.50;99.90;;;;;;4995633;28;20050;-75
2022/06/10 09:16:31;;;;;;;7.78;4.80;;;16.50;99.90;;;;;;4994650;28;20046;-74
2022/06/10 09:19:15;;;;;;;8.85;4.80;;;16.50;99.90;;;;;;4995775;28;20086;-74
2022/06/10 09:21:53;;;;;;;9.02;5.40;;;16.50;99.90;;;;;;4994876;28;20134;-76
2022/06/10 09:24:28;;;;;;;8.38;4.68;;;16.50;99.90;;;;;;4995318;28;20053;-74
2022/06/10 09:27:14;;;;;;;10.05;5.03;;;16.50;99.90;;;;;;4978155;28;20104;-74
2022/06/10 09:29:41;;;;;;;10.18;5.05;;;16.60;99.90;;;;;;4994165;28;20046;-75
2022/06/10 09:32:11;;;;;;;13.38;5.78;;;16.60;99.90;;;;;;4994430;28;20053;-75
2022/06/10 09:34:58;;;;;;;8.35;4.93;;;16.70;99.90;;;;;;4995314;28;20038;-75
2022/06/10 09:37:32;;;;;;;9.93;5.85;;;16.80;99.90;;;;;;4993619;28;20384;-75
2022/06/10 09:43:09;;;;;;;8.82;5.40;;;16.90;99.90;;;;;;4995186;28;20058;-75
2022/06/10 09:46:00;;;;;;;9.80;5.70;;;17.00;99.90;;;;;;4977478;28;20133;-75
2022/06/10 09:48:51;;;;;;;6.93;4.85;;;17.00;99.90;;;;;;4995138;28;20206;-75
2022/06/10 09:51:26;;;;;;;8.57;5.47;;;17.10;99.90;;;;;;4977530;28;20133;-75
2022/06/10 09:54:02;;;;;;;10.73;5.55;;;17.10;99.90;;;;;;4994956;28;20109;-75
2022/06/10 09:56:53;;;;;;;9.57;4.90;;;17.30;99.90;;;;;;4995000;28;20493;-74
2022/06/10 09:59:34;;;;;;;8.48;4.32;;;17.40;99.90;;;;;;4994816;28;20046;-74
2022/06/10 10:02:32;;;;;;;7.80;4.70;;;17.40;99.90;;;;;;4993822;28;20133;-74
2022/06/10 10:05:22;;;;;;;9.82;5.30;;;17.40;99.90;;;;;;4994792;28;20100;-74
2022/06/10 10:08:16;;;;;;;7.80;4.28;;;17.40;99.90;;;;;;4993970;28;20050;-74
2022/06/10 10:11:08;;;;;;;6.78;4.13;;;17.40;99.90;;;;;;4994078;28;20081;-74
2022/06/10 10:13:58;;;;;;;10.00;5.15;;;17.40;99.90;;;;;;4993169;28;20048;-74
2022/06/10 10:16:30;;;;;;;11.32;4.80;;;17.70;99.90;;;;;;4992826;28;20129;-75
2022/06/10 10:19:19;;;;;;;8.68;4.43;;;17.40;99.90;;;;;;4995135;28;20456;-75
2022/06/10 10:21:56;;;;;;;9.63;5.32;;;17.40;99.90;;;;;;4990333;28;20557;-75
2022/06/10 10:24:24;;;;;;;8.68;5.53;;;17.40;99.90;;;;;;4994815;28;20421;-74
2022/06/10 10:26:51;;;;;;;7.68;4.88;;;17.40;99.90;;;;;;4993929;28;20057;-75
2022/06/10 10:29:33;;;;;;;9.35;4.53;;;17.40;99.90;;;;;;4992702;28;20068;-75
2022/06/10 10:32:13;;;;;;;8.73;5.10;;;17.50;99.90;;;;;;4994888;28;20069;-74
2022/06/10 10:34:43;;;;;;;7.97;4.70;;;17.50;99.90;;;;;;4993769;28;20104;-74
2022/06/10 10:37:49;;;;;;;8.50;4.65;;;17.60;99.90;;;;;;4994544;28;20050;-74
2022/06/10 10:40:18;;;;;;;6.15;4.18;;;17.60;99.90;;;;;;4973609;28;20046;-75
2022/06/10 10:42:46;;;;;;;10.70;4.78;;;17.70;99.90;;;;;;4993120;28;20058;-74
2022/06/10 10:45:33;;;;;;;10.32;4.85;;;17.80;99.90;;;;;;4993371;28;20054;-74
2022/06/10 10:48:25;;;;;;;10.45;4.93;;;17.90;99.90;;;;;;4977108;28;20375;-73
2022/06/10 10:51:19;;;;;;;9.57;4.22;;;18.00;99.90;;;;;;4992527;28;20057;-75
2022/06/10 10:53:55;;;;;;;9.55;4.00;;;18.20;99.90;;;;;;4993788;28;20082;-74
2022/06/10 10:56:31;;;;;;;9.43;4.30;;;18.30;99.90;;;;;;4992393;28;20050;-75
2022/06/10 10:58:58;;;;;;;7.43;3.95;;;18.50;99.90;;;;;;4993802;28;20069;-74
2022/06/10 11:01:46;;;;;;;5.03;3.60;;;18.50;99.90;;;;;;4993647;28;20043;-74
2022/06/10 11:04:24;;;;;;;7.72;3.30;;;18.60;99.90;;;;;;4994025;28;20430;-74
2022/06/10 11:07:14;;;;;;;6.38;4.22;;;18.60;99.90;;;;;;4993563;28;20042;-74
2022/06/10 11:09:46;;;;;;;6.35;3.28;;;18.60;99.90;;;;;;4990347;28;20054;-74
2022/06/10 11:12:19;;;;;;;8.05;3.55;;;18.60;99.90;;;;;;4992297;28;20054;-74
2022/06/10 11:15:00;;;;;;;5.53;3.45;;;18.60;99.90;;;;;;4993195;28;20053;-74
2022/06/10 11:17:26;;;;;;;6.72;3.47;;;18.60;99.90;;;;;;4992748;28;20058;-74
2022/06/10 11:19:59;;;;;;;6.43;3.78;;;18.60;99.90;;;;;;4976042;28;20051;-74
2022/06/10 11:22:30;;;;;;;9.25;3.58;;;18.60;99.90;;;;;;4993316;28;20402;-74
2022/06/10 11:25:17;;;;;;;7.40;3.53;;;18.60;99.90;;;;;;4993156;28;20046;-74
2022/06/10 11:27:48;;;;;;;8.20;3.47;;;18.60;99.90;;;;;;4992784;28;20054;-74
2022/06/10 11:30:16;;;;;;;5.72;3.10;;;18.60;99.90;;;;;;4992182;28;20051;-74
2022/06/10 11:33:01;;;;;;;5.72;3.10;;;18.70;99.90;;;;;;4992922;28;20057;-74
2022/06/10 11:35:36;;;;;;;4.65;2.83;;;18.80;99.90;;;;;;4993219;28;20053;-75
2022/06/10 11:38:18;;;;;;;10.00;3.75;;;18.90;99.90;;;;;;4992885;28;20054;-74
2022/06/10 11:40:46;;;;;;;5.93;3.00;;;18.90;99.90;;;;;;4976948;28;20065;-74
2022/06/10 11:43:31;;;;;;;5.60;2.72;;;18.90;99.90;;;;;;4991875;28;20054;-75
2022/06/10 11:46:18;;;;;;;5.05;3.00;;;18.90;99.90;;;;;;4992583;28;20438;-74
2022/06/10 11:49:20;;;;;;;7.25;3.25;;;19.00;99.90;;;;;;4993277;28;20039;-74
2022/06/10 11:52:00;;;;;;;8.80;2.95;;;19.10;99.90;;;;;;4992249;28;20062;-74
2022/06/10 11:54:37;;;;;;;9.02;2.95;;;19.10;99.90;;;;;;4991932;28;20051;-75
2022/06/10 12:00:27;;;;;;;6.65;2.28;;;19.10;99.90;;;;;;4993162;28;20137;-74
2022/06/10 12:03:02;;;;;;;6.35;3.13;;;19.20;99.90;;;;;;4992651;28;20046;-76
2022/06/10 12:05:38;;;;;;;6.20;3.10;;;19.20;99.90;;;;;;4992041;28;20088;-74
2022/06/10 12:08:40;;;;;;;3.90;2.60;;;19.20;99.90;;;;;;4992649;28;20521;-73
2022/06/10 12:11:27;;;;;;;4.80;2.67;;;19.30;99.90;;;;;;4980168;28;20054;-73
2022/06/10 12:14:11;;;;;;;7.25;2.63;;;19.30;99.90;;;;;;4996974;28;20292;-75
2022/06/10 12:16:38;;;;;;;6.43;2.50;;;19.30;99.90;;;;;;4997762;28;20232;-73
2022/06/10 12:19:12;;;;;;;5.55;2.65;;;19.30;99.90;;;;;;4995868;28;20181;-73
2022/06/10 12:21:38;;;;;;;6.10;2.63;;;19.40;99.90;;;;;;4996210;28;20487;-73
2022/06/10 12:24:16;;;;;;;6.32;2.40;;;19.50;99.90;;;;;;4995834;28;20053;-72
2022/06/10 12:26:51;;;;;;;6.00;2.67;;;19.60;99.90;;;;;;4996831;28;20054;-73
2022/06/10 12:29:44;;;;;;;8.30;2.45;;;19.70;99.90;;;;;;4995524;28;20510;-75
2022/06/10 12:32:35;;;;;;;5.65;2.75;;;19.90;99.90;;;;;;4996126;28;20042;-74
2022/06/10 12:35:13;;;;;;;4.93;2.40;;;20.00;99.90;;;;;;4995078;28;20454;-75
2022/06/10 12:38:04;;;;;;;5.70;2.60;;;20.00;99.90;;;;;;4996716;28;20049;-74
2022/06/10 12:41:04;;;;;;;5.60;2.65;;;20.00;99.90;;;;;;4995395;28;20054;-74
2022/06/10 12:43:34;;;;;;;8.18;2.97;;;20.00;99.90;;;;;;4996502;28;20089;-73
2022/06/10 12:46:07;;;;;;;6.43;2.10;;;19.90;99.90;;;;;;4995628;28;20038;-73
2022/06/10 12:48:46;;;;;;;3.75;2.10;;;19.90;99.90;;;;;;4997208;28;20054;-73
2022/06/10 12:51:12;;;;;;;7.43;2.08;;;19.90;99.90;;;;;;4995873;28;20050;-73
2022/06/10 12:53:47;;;;;;;6.65;2.10;;;20.00;99.90;;;;;;4994708;28;20057;-73
2022/06/10 12:56:31;;;;;;;8.02;2.22;;;20.10;99.90;;;;;;4996908;28;20058;-73
2022/06/10 12:59:06;;;;;;;5.75;2.10;;;20.20;99.90;;;;;;4996306;28;20097;-72
2022/06/10 13:01:32;;;;;;;5.30;2.05;;;20.30;99.90;;;;;;4996004;28;20050;-74
2022/06/10 13:04:20;;;;;;;4.78;1.98;;;20.50;99.90;;;;;;4995385;28;20534;-74
2022/06/10 13:07:00;;;;;;;7.13;2.22;;;20.60;99.90;;;;;;4994452;28;20146;-75
2022/06/10 13:09:34;;;;;;;5.90;2.40;;;20.70;99.90;;;;;;4994686;28;20042;-74
2022/06/10 13:12:07;;;;;;;5.88;2.40;;;20.80;99.90;;;;;;4995846;28;20042;-73
2022/06/10 13:14:36;;;;;;;7.70;2.50;;;20.80;99.90;;;;;;4994655;28;20046;-73
2022/06/10 13:17:22;;;;;;;5.53;2.22;;;20.80;99.90;;;;;;4994966;28;20054;-73
2022/06/10 13:19:53;;;;;;;7.28;3.13;;;20.80;99.90;;;;;;4995157;28;20554;-73
2022/06/10 13:22:19;;;;;;;7.18;2.42;;;20.80;99.90;;;;;;4994503;28;20050;-73
2022/06/10 13:24:54;;;;;;;5.32;1.83;;;20.80;99.90;;;;;;4993891;28;20046;-73
2022/06/10 13:27:29;;;;;;;6.03;1.90;;;20.80;99.90;;;;;;4994539;28;20069;-72
2022/06/10 13:29:59;;;;;;;9.60;2.78;;;20.70;99.90;;;;;;4994754;28;20042;-72
2022/06/10 13:32:28;;;;;;;4.60;2.10;;;20.80;99.90;;;;;;4995451;28;20496;-73
2022/06/10 13:34:56;;;;;;;5.05;1.77;;;20.80;99.90;;;;;;4995564;28;20042;-73
2022/06/10 13:37:24;;;;;;;9.82;2.50;;;20.70;99.90;;;;;;4995414;28;20175;-74
2022/06/10 13:39:53;;;;;;;4.00;2.22;;;20.60;99.90;;;;;;4994624;28;20089;-74